Time;durP1;ratioP1;P1;durP2;ratioP2;P2;SDS_P1;SDS_P2;PMS_P1;PMS_P2;Temp;Humidity;BMP_temperature;BMP_pressure;BME280_temperature;BME280_humidity;BME280_pressure;Samples;Min_cycle;Max_cycle;Signal;HPM_P1;HPM_P2
2024/02/06 00:00:49;;;;;;;0.30;0.30;;;3.70;99.90;;;;;;5008866;28;20165;-84
2024/02/06 00:03:15;;;;;;;0.50;0.50;;;3.70;99.90;;;;;;5007576;28;20029;-83
2024/02/06 00:05:40;;;;;;;0.10;0.10;;;3.80;99.90;;;;;;5011421;28;20045;-83
2024/02/06 00:08:06;;;;;;;0.10;0.10;;;3.80;99.90;;;;;;5007302;28;20037;-83
2024/02/06 00:10:32;;;;;;;0.10;0.10;;;3.70;99.90;;;;;;5008962;28;20018;-83
2024/02/06 00:12:57;;;;;;;0.63;0.45;;;3.70;99.90;;;;;;5010129;28;20184;-83
2024/02/06 00:15:23;;;;;;;0.10;0.10;;;3.90;99.90;;;;;;5012273;28;20030;-83
2024/02/06 00:17:48;;;;;;;0.10;0.10;;;3.80;99.90;;;;;;5008170;28;20026;-83
2024/02/06 00:20:19;;;;;;;0.13;0.13;;;3.80;99.90;;;;;;5006683;28;20033;-83
2024/02/06 00:22:48;;;;;;;0.10;0.10;;;3.70;99.90;;;;;;5007604;28;20765;-83
2024/02/06 00:25:13;;;;;;;0.20;0.20;;;3.70;99.90;;;;;;5001431;28;20105;-83
2024/02/06 00:27:39;;;;;;;0.10;0.10;;;3.70;99.90;;;;;;5009653;28;20081;-83
2024/02/06 00:30:06;;;;;;;0.10;0.10;;;3.70;99.90;;;;;;5009069;28;20041;-84
2024/02/06 00:32:31;;;;;;;1.08;1.02;;;3.80;99.90;;;;;;5010272;28;20061;-83
2024/02/06 00:34:59;;;;;;;0.10;0.10;;;3.90;99.90;;;;;;5014488;28;20068;-84
2024/02/06 00:37:26;;;;;;;0.10;0.10;;;3.90;99.90;;;;;;5005167;28;20029;-85
2024/02/06 00:39:51;;;;;;;0.10;0.10;;;3.90;99.90;;;;;;5006534;28;20404;-85
2024/02/06 00:42:17;;;;;;;0.10;0.10;;;3.90;99.90;;;;;;5008132;28;20038;-86
2024/02/06 00:44:43;;;;;;;0.10;0.10;;;3.90;99.90;;;;;;5009504;28;20587;-84
2024/02/06 00:47:08;;;;;;;0.10;0.10;;;3.90;99.90;;;;;;5013764;28;20528;-84
2024/02/06 00:49:35;;;;;;;0.10;0.10;;;3.70;99.90;;;;;;5012636;28;20180;-84
2024/02/06 00:52:01;;;;;;;0.10;0.10;;;3.80;99.90;;;;;;5007395;28;20125;-85
2024/02/06 00:54:26;;;;;;;0.10;0.10;;;3.80;99.90;;;;;;5006894;28;20140;-85
2024/02/06 00:56:52;;;;;;;0.10;0.10;;;3.70;99.90;;;;;;5009925;28;20795;-85
2024/02/06 00:59:18;;;;;;;0.10;0.10;;;3.80;99.90;;;;;;5009982;28;20641;-83
2024/02/06 01:01:43;;;;;;;0.10;0.10;;;3.70;99.90;;;;;;5012423;28;20167;-84
2024/02/06 01:04:09;;;;;;;0.10;0.10;;;3.70;99.90;;;;;;5007977;28;20486;-84
2024/02/06 01:06:35;;;;;;;0.10;0.10;;;3.70;99.90;;;;;;5014571;28;20041;-83
2024/02/06 01:09:01;;;;;;;0.65;0.65;;;3.70;99.90;;;;;;5007384;28;20033;-83
2024/02/06 01:11:26;;;;;;;0.57;0.57;;;3.50;99.90;;;;;;5007704;28;20041;-84
2024/02/06 01:13:52;;;;;;;0.10;0.10;;;3.40;99.90;;;;;;5012402;28;20125;-84
2024/02/06 01:16:18;;;;;;;0.20;0.20;;;3.40;99.90;;;;;;5010891;28;20037;-84
2024/02/06 01:18:43;;;;;;;0.10;0.10;;;3.40;99.90;;;;;;5007214;28;20029;-84
2024/02/06 01:21:09;;;;;;;1.10;1.10;;;3.30;99.90;;;;;;5009039;28;20116;-84
2024/02/06 01:23:35;;;;;;;0.10;0.10;;;3.30;99.90;;;;;;5008477;28;20025;-85
2024/02/06 01:26:00;;;;;;;0.10;0.10;;;3.30;99.90;;;;;;5004635;28;20033;-85
2024/02/06 01:28:26;;;;;;;0.10;0.10;;;3.10;99.90;;;;;;5006490;28;20117;-85
2024/02/06 01:30:51;;;;;;;0.05;0.05;;;3.20;99.90;;;;;;5011612;28;20496;-85
2024/02/06 01:33:17;;;;;;;0.35;0.35;;;3.00;99.90;;;;;;5011768;28;20030;-84
2024/02/06 01:35:43;;;;;;;5.75;2.10;;;2.90;99.90;;;;;;5014008;28;20030;-86
2024/02/06 01:38:08;;;;;;;0.80;0.80;;;3.10;99.90;;;;;;5009208;28;20030;-84
2024/02/06 01:40:41;;;;;;;0.17;0.17;;;3.00;99.90;;;;;;5014843;28;20052;-84
2024/02/06 01:43:07;;;;;;;1.13;0.65;;;3.00;99.90;;;;;;5003727;28;20050;-84
2024/02/06 01:45:33;;;;;;;0.15;0.15;;;2.90;99.90;;;;;;5004911;28;20045;-84
2024/02/06 01:47:59;;;;;;;0.10;0.10;;;3.00;99.90;;;;;;5005148;28;20037;-84
2024/02/06 01:50:25;;;;;;;0.10;0.10;;;3.10;99.90;;;;;;5006738;28;20037;-84
2024/02/06 01:52:52;;;;;;;1.10;1.05;;;3.20;99.90;;;;;;5008205;28;20291;-84
2024/02/06 01:55:18;;;;;;;3.35;3.13;;;3.30;99.90;;;;;;5009689;28;20029;-83
2024/02/06 01:57:45;;;;;;;0.10;0.10;;;3.20;99.90;;;;;;5008245;28;20044;-84
2024/02/06 02:00:11;;;;;;;0.10;0.10;;;3.30;99.90;;;;;;5010767;28;20030;-85
2024/02/06 02:02:37;;;;;;;1.95;1.85;;;3.50;99.90;;;;;;5004832;28;20064;-85
2024/02/06 02:05:06;;;;;;;0.75;0.75;;;3.60;99.90;;;;;;5006563;28;20029;-84
2024/02/06 02:07:34;;;;;;;0.10;0.10;;;3.60;99.90;;;;;;5008741;28;20100;-85
2024/02/06 02:10:00;;;;;;;1.08;0.98;;;3.50;99.90;;;;;;5009663;28;20033;-85
2024/02/06 02:12:25;;;;;;;0.10;0.10;;;3.70;99.90;;;;;;5009249;28;20060;-84
2024/02/06 02:14:51;;;;;;;0.10;0.10;;;3.40;99.90;;;;;;5015179;28;20692;-83
2024/02/06 02:17:17;;;;;;;0.10;0.10;;;3.30;99.90;;;;;;5011449;28;20060;-83
2024/02/06 02:19:42;;;;;;;0.10;0.10;;;3.40;99.90;;;;;;5008830;28;20106;-82
2024/02/06 02:22:08;;;;;;;0.10;0.10;;;3.40;99.90;;;;;;5010848;28;20113;-82
2024/02/06 02:24:34;;;;;;;0.10;0.10;;;3.30;99.90;;;;;;5007010;28;20094;-83
2024/02/06 02:27:00;;;;;;;0.10;0.10;;;3.30;99.90;;;;;;5011192;28;20034;-84
2024/02/06 02:29:26;;;;;;;0.10;0.10;;;3.40;99.90;;;;;;5013609;28;20033;-83
2024/02/06 02:31:53;;;;;;;0.10;0.10;;;3.60;99.90;;;;;;5010989;28;20052;-83
2024/02/06 02:34:20;;;;;;;0.10;0.10;;;3.50;99.90;;;;;;5000674;28;20034;-84
2024/02/06 02:36:46;;;;;;;0.10;0.10;;;3.60;99.90;;;;;;5010994;28;20100;-84
2024/02/06 02:39:11;;;;;;;0.20;0.20;;;3.70;99.90;;;;;;5010882;28;20093;-84
2024/02/06 02:41:37;;;;;;;1.85;0.40;;;3.60;99.90;;;;;;5008520;28;20093;-83
2024/02/06 02:44:03;;;;;;;0.10;0.10;;;3.70;99.90;;;;;;5007965;28;20045;-84
2024/02/06 02:46:29;;;;;;;2.85;1.25;;;3.70;99.90;;;;;;5009814;28;20048;-84
2024/02/06 02:48:54;;;;;;;0.60;0.60;;;3.70;99.90;;;;;;5008130;28;20126;-84
2024/02/06 02:51:20;;;;;;;0.10;0.10;;;3.70;99.90;;;;;;5008896;28;20117;-83
2024/02/06 02:53:46;;;;;;;0.20;0.20;;;3.50;99.90;;;;;;5009860;28;20033;-82
2024/02/06 02:56:12;;;;;;;0.20;0.20;;;3.60;99.90;;;;;;5008718;28;20069;-83
2024/02/06 02:58:38;;;;;;;0.10;0.10;;;3.50;99.90;;;;;;5006360;28;20061;-82
2024/02/06 03:01:04;;;;;;;0.10;0.10;;;3.40;99.90;;;;;;5008449;28;20049;-84
2024/02/06 03:03:29;;;;;;;0.27;0.27;;;3.40;99.90;;;;;;5016442;28;20033;-82
2024/02/06 03:05:55;;;;;;;0.10;0.10;;;3.40;99.90;;;;;;5010514;28;20034;-84
2024/02/06 03:08:21;;;;;;;0.83;0.83;;;3.40;99.90;;;;;;5008562;28;20456;-85
2024/02/06 03:10:46;;;;;;;0.80;0.80;;;3.40;99.90;;;;;;5008848;28;20201;-85
2024/02/06 03:13:12;;;;;;;0.10;0.10;;;3.40;99.90;;;;;;5008550;28;20041;-85
2024/02/06 03:15:38;;;;;;;0.13;0.13;;;3.40;99.90;;;;;;5012061;28;20029;-85
2024/02/06 03:18:03;;;;;;;0.10;0.10;;;3.50;99.90;;;;;;5010075;28;20032;-85
2024/02/06 03:20:29;;;;;;;1.67;1.58;;;3.70;99.90;;;;;;5000753;28;20208;-82
2024/02/06 03:22:55;;;;;;;1.17;1.17;;;3.50;99.90;;;;;;5007847;28;20021;-85
2024/02/06 03:25:20;;;;;;;1.77;1.00;;;3.40;99.90;;;;;;5007311;28;20034;-85
2024/02/06 03:27:46;;;;;;;0.20;0.20;;;3.40;99.90;;;;;;5011652;28;20025;-84
2024/02/06 03:30:13;;;;;;;0.10;0.10;;;3.30;99.90;;;;;;5018739;28;20038;-84
2024/02/06 03:32:38;;;;;;;2.60;0.85;;;3.60;99.90;;;;;;5008601;28;20062;-82
2024/02/06 03:35:05;;;;;;;0.10;0.10;;;3.60;99.90;;;;;;5007721;28;20045;-82
2024/02/06 03:37:31;;;;;;;;;;;3.40;99.90;;;;;;5009886;28;20029;-82
2024/02/06 03:39:56;;;;;;;0.10;0.10;;;3.40;99.90;;;;;;5011963;28;19914;-81
2024/02/06 03:42:22;;;;;;;0.20;0.20;;;3.60;99.90;;;;;;5008989;28;20018;-82
2024/02/06 03:44:48;;;;;;;0.10;0.10;;;3.70;99.90;;;;;;5012515;28;20037;-81
2024/02/06 03:47:14;;;;;;;0.10;0.10;;;3.70;99.90;;;;;;5014875;28;20051;-82
2024/02/06 03:49:39;;;;;;;0.30;0.30;;;3.70;99.90;;;;;;5008756;28;20044;-82
2024/02/06 03:52:05;;;;;;;0.10;0.10;;;3.80;99.90;;;;;;5008415;28;20033;-83
2024/02/06 03:54:31;;;;;;;0.20;0.20;;;3.80;99.90;;;;;;5007956;28;20065;-84
2024/02/06 03:56:57;;;;;;;0.10;0.10;;;3.70;99.90;;;;;;5011597;28;20029;-84
2024/02/06 03:59:22;;;;;;;0.10;0.10;;;3.60;99.90;;;;;;5009373;28;20034;-84
2024/02/06 04:01:48;;;;;;;0.10;0.10;;;3.70;99.90;;;;;;5006109;28;20679;-85
2024/02/06 04:04:14;;;;;;;0.20;0.20;;;3.70;99.90;;;;;;5006973;28;20084;-84
2024/02/06 04:06:39;;;;;;;0.20;0.20;;;3.70;99.90;;;;;;5006541;28;20032;-84
2024/02/06 04:09:06;;;;;;;0.20;0.20;;;3.70;99.90;;;;;;5009173;28;20034;-84
2024/02/06 04:11:32;;;;;;;0.10;0.10;;;3.70;99.90;;;;;;5016990;28;20029;-83
2024/02/06 04:13:58;;;;;;;0.00;0.00;;;3.80;99.90;;;;;;5008270;28;20052;-84
2024/02/06 04:16:23;;;;;;;0.10;0.10;;;3.80;99.90;;;;;;5008987;28;20193;-84
2024/02/06 04:18:49;;;;;;;0.10;0.10;;;3.80;99.90;;;;;;5007690;28;20096;-84
2024/02/06 04:21:15;;;;;;;0.10;0.10;;;3.80;99.90;;;;;;5013068;28;20056;-83
2024/02/06 04:23:40;;;;;;;0.20;0.20;;;3.80;99.90;;;;;;5011255;28;20110;-83
2024/02/06 04:26:06;;;;;;;0.10;0.10;;;3.80;99.90;;;;;;5013405;28;20669;-83
2024/02/06 04:28:32;;;;;;;0.10;0.10;;;3.90;99.90;;;;;;5008899;28;20551;-82
2024/02/06 04:30:58;;;;;;;0.10;0.10;;;3.90;99.90;;;;;;5007711;28;20066;-83
2024/02/06 04:33:23;;;;;;;0.10;0.10;;;3.80;99.90;;;;;;5010322;28;20065;-83
2024/02/06 04:35:49;;;;;;;0.10;0.10;;;3.70;99.90;;;;;;5007539;28;20018;-82
2024/02/06 04:38:15;;;;;;;0.10;0.10;;;3.70;99.90;;;;;;5016462;28;20034;-84
2024/02/06 04:40:41;;;;;;;0.10;0.10;;;3.60;99.90;;;;;;5007562;28;20041;-84
2024/02/06 04:43:06;;;;;;;0.10;0.10;;;3.70;99.90;;;;;;5007604;28;20107;-83
2024/02/06 04:45:33;;;;;;;0.10;0.10;;;3.70;99.90;;;;;;5007427;28;20041;-81
2024/02/06 04:47:58;;;;;;;0.10;0.10;;;3.70;99.90;;;;;;5014358;28;20587;-81
2024/02/06 04:50:24;;;;;;;0.20;0.20;;;3.80;99.90;;;;;;5010147;28;20128;-81
2024/02/06 04:52:50;;;;;;;0.10;0.10;;;3.60;99.90;;;;;;5006994;28;20037;-82
2024/02/06 04:55:16;;;;;;;0.10;0.10;;;3.60;99.90;;;;;;5008234;28;20176;-81
2024/02/06 04:57:42;;;;;;;0.53;0.53;;;3.60;99.90;;;;;;5006105;28;20029;-83
2024/02/06 05:00:12;;;;;;;0.10;0.10;;;3.70;99.90;;;;;;5005751;28;20269;-82
2024/02/06 05:02:41;;;;;;;0.30;0.30;;;3.60;99.90;;;;;;5004488;28;20522;-83
2024/02/06 05:05:07;;;;;;;0.10;0.10;;;3.60;99.90;;;;;;5014235;28;20033;-82
2024/02/06 05:07:33;;;;;;;0.37;0.37;;;3.40;99.90;;;;;;5005682;28;20049;-81
2024/02/06 05:09:59;;;;;;;0.10;0.10;;;3.30;99.90;;;;;;5008286;28;20147;-82
2024/02/06 05:12:24;;;;;;;0.10;0.10;;;3.30;99.90;;;;;;5006758;28;20045;-82
2024/02/06 05:14:50;;;;;;;0.10;0.10;;;3.30;99.90;;;;;;5012030;28;20026;-82
2024/02/06 05:17:16;;;;;;;0.20;0.20;;;3.20;99.90;;;;;;5008672;28;20040;-83
2024/02/06 05:19:42;;;;;;;0.10;0.10;;;3.10;99.90;;;;;;5008615;28;20034;-82
2024/02/06 05:22:08;;;;;;;0.10;0.10;;;3.10;99.90;;;;;;5009905;28;20204;-82
2024/02/06 05:24:34;;;;;;;0.10;0.10;;;3.00;99.90;;;;;;5006189;28;20021;-82
2024/02/06 05:27:03;;;;;;;0.20;0.20;;;3.20;99.90;;;;;;5007672;28;20125;-82
2024/02/06 05:29:29;;;;;;;0.10;0.10;;;3.20;99.90;;;;;;5006687;28;20034;-83
2024/02/06 05:31:55;;;;;;;0.10;0.10;;;3.30;99.90;;;;;;5013015;28;20823;-84
2024/02/06 05:34:21;;;;;;;0.10;0.10;;;3.40;99.90;;;;;;5008143;28;20034;-83
2024/02/06 05:36:47;;;;;;;1.03;1.03;;;3.30;99.90;;;;;;5011643;28;20079;-83
2024/02/06 05:39:13;;;;;;;0.10;0.10;;;3.10;99.90;;;;;;5014997;28;20029;-83
2024/02/06 05:41:39;;;;;;;0.20;0.20;;;3.20;99.90;;;;;;5006545;28;20570;-85
2024/02/06 05:44:04;;;;;;;0.35;0.35;;;3.40;99.90;;;;;;5015464;28;20283;-81
2024/02/06 05:46:30;;;;;;;0.10;0.10;;;3.40;99.90;;;;;;5009906;28;20037;-79
2024/02/06 05:48:57;;;;;;;0.10;0.10;;;3.40;99.90;;;;;;5012048;28;20053;-79
2024/02/06 05:51:22;;;;;;;0.17;0.17;;;3.40;99.90;;;;;;5010696;28;20040;-78
2024/02/06 05:53:48;;;;;;;0.10;0.10;;;3.40;99.90;;;;;;5010085;28;20033;-80
2024/02/06 05:56:13;;;;;;;0.10;0.10;;;3.50;99.90;;;;;;5009230;28;20040;-80
2024/02/06 05:58:41;;;;;;;0.10;0.10;;;3.60;99.90;;;;;;5009176;28;20022;-80
2024/02/06 06:01:07;;;;;;;0.10;0.10;;;3.70;99.90;;;;;;5008294;28;20188;-81
2024/02/06 06:03:33;;;;;;;0.20;0.20;;;3.70;99.90;;;;;;5011684;28;20711;-80
2024/02/06 06:05:58;;;;;;;0.10;0.10;;;3.70;99.90;;;;;;5010133;28;20085;-80
2024/02/06 06:08:24;;;;;;;0.10;0.10;;;3.70;99.90;;;;;;5009201;28;20109;-82
2024/02/06 06:10:50;;;;;;;0.10;0.10;;;3.90;99.90;;;;;;5009414;28;20798;-81
2024/02/06 06:13:16;;;;;;;0.30;0.30;;;3.90;99.90;;;;;;5009895;28;20090;-81
2024/02/06 06:15:42;;;;;;;1.45;0.82;;;3.90;99.90;;;;;;5012258;28;20529;-80
2024/02/06 06:18:08;;;;;;;0.10;0.10;;;3.90;99.90;;;;;;5009930;28;20492;-80
2024/02/06 06:20:33;;;;;;;0.10;0.10;;;3.90;99.90;;;;;;5011170;28;20083;-82
2024/02/06 06:22:59;;;;;;;0.10;0.10;;;3.90;99.90;;;;;;5008246;28;20022;-81
2024/02/06 06:25:25;;;;;;;4.50;2.30;;;3.90;99.90;;;;;;5005899;28;20037;-81
2024/02/06 06:27:52;;;;;;;1.52;1.45;;;3.90;99.90;;;;;;5016996;28;20037;-81
2024/02/06 06:30:18;;;;;;;;;;;3.80;99.90;;;;;;5010672;28;20037;-80
2024/02/06 06:32:43;;;;;;;4.00;1.10;;;3.70;99.90;;;;;;5018140;28;19917;-84
2024/02/06 06:35:09;;;;;;;0.57;0.57;;;3.80;99.90;;;;;;5008093;28;20425;-83
2024/02/06 06:37:35;;;;;;;0.10;0.10;;;3.80;99.90;;;;;;5011297;28;20030;-84
2024/02/06 06:40:04;;;;;;;0.35;0.35;;;3.70;99.90;;;;;;5017738;28;20037;-81
2024/02/06 06:42:30;;;;;;;1.80;1.65;;;3.70;99.90;;;;;;5012331;28;20121;-81
2024/02/06 06:44:56;;;;;;;0.68;0.68;;;3.80;99.90;;;;;;5011578;28;20200;-80
2024/02/06 06:47:22;;;;;;;0.10;0.10;;;3.80;99.90;;;;;;5012915;28;20041;-80
2024/02/06 06:49:47;;;;;;;0.28;0.28;;;3.80;99.90;;;;;;5008185;28;20044;-81
2024/02/06 06:52:13;;;;;;;0.10;0.10;;;3.90;99.90;;;;;;5010283;28;20540;-80
2024/02/06 06:54:39;;;;;;;1.45;0.95;;;3.80;99.90;;;;;;5009979;28;20021;-88
2024/02/06 06:57:05;;;;;;;0.10;0.10;;;3.80;99.90;;;;;;5010600;28;20120;-88
2024/02/06 06:59:31;;;;;;;0.73;0.73;;;3.90;99.90;;;;;;5012668;28;20089;-91
2024/02/06 07:02:00;;;;;;;0.10;0.10;;;3.80;99.90;;;;;;5017465;28;20117;-90
2024/02/06 07:04:26;;;;;;;0.47;0.47;;;3.90;99.90;;;;;;5011365;28;20110;-95
2024/02/06 07:06:53;;;;;;;0.10;0.10;;;4.00;99.90;;;;;;5009974;28;20570;-89
2024/02/06 07:09:20;;;;;;;0.13;0.13;;;4.10;99.90;;;;;;5011028;28;20109;-92
2024/02/06 07:11:46;;;;;;;0.10;0.10;;;4.00;99.90;;;;;;5022472;28;20556;-88
2024/02/06 07:14:12;;;;;;;0.10;0.10;;;3.90;99.90;;;;;;5007674;28;20085;-88
2024/02/06 07:16:38;;;;;;;0.10;0.10;;;4.00;99.90;;;;;;5009553;28;20018;-80
2024/02/06 07:19:04;;;;;;;0.32;0.32;;;4.10;99.90;;;;;;5009185;28;20030;-79
2024/02/06 07:21:29;;;;;;;0.20;0.20;;;4.10;99.90;;;;;;5015344;28;20033;-80
2024/02/06 07:23:55;;;;;;;0.20;0.20;;;4.00;99.90;;;;;;5010299;28;20029;-80
2024/02/06 07:26:21;;;;;;;0.20;0.20;;;4.10;99.90;;;;;;5007091;28;20637;-81
2024/02/06 07:28:47;;;;;;;3.63;1.23;;;4.10;99.90;;;;;;5024488;28;20405;-81
2024/02/06 07:31:13;;;;;;;0.10;0.10;;;4.10;99.90;;;;;;5014772;28;20030;-80
2024/02/06 07:33:40;;;;;;;0.10;0.10;;;4.00;99.90;;;;;;5006959;28;20811;-81
2024/02/06 07:36:06;;;;;;;0.10;0.10;;;4.00;99.90;;;;;;5007942;28;20092;-81
2024/02/06 07:38:33;;;;;;;0.10;0.10;;;4.10;99.90;;;;;;5012140;28;20026;-81
2024/02/06 07:40:59;;;;;;;0.10;0.10;;;4.10;99.90;;;;;;5010227;28;20406;-80
2024/02/06 07:43:31;;;;;;;0.10;0.10;;;4.00;99.90;;;;;;5009785;28;21293;-80
2024/02/06 07:45:57;;;;;;;0.10;0.10;;;3.90;99.90;;;;;;5011322;28;20029;-80
2024/02/06 07:48:22;;;;;;;0.10;0.10;;;3.80;99.90;;;;;;5007827;28;20040;-81
2024/02/06 07:50:49;;;;;;;0.10;0.10;;;3.80;99.90;;;;;;5009405;28;20033;-80
2024/02/06 07:53:15;;;;;;;0.10;0.10;;;3.70;99.90;;;;;;5014995;28;20025;-79
2024/02/06 07:55:41;;;;;;;0.45;0.45;;;3.70;99.90;;;;;;5014014;28;20278;-80
2024/02/06 07:58:07;;;;;;;0.10;0.10;;;3.90;99.90;;;;;;5009195;28;20410;-80
2024/02/06 08:00:33;;;;;;;0.15;0.15;;;3.90;99.90;;;;;;5008302;28;20036;-79
2024/02/06 08:02:59;;;;;;;0.57;0.57;;;4.10;99.90;;;;;;5007057;28;20037;-80
2024/02/06 08:05:25;;;;;;;0.10;0.10;;;4.00;99.90;;;;;;5017429;28;20033;-80
2024/02/06 08:07:51;;;;;;;0.10;0.10;;;4.10;99.90;;;;;;5012633;28;20025;-81
2024/02/06 08:10:17;;;;;;;0.10;0.10;;;4.00;99.90;;;;;;5011845;28;20482;-80
2024/02/06 08:12:43;;;;;;;0.10;0.10;;;3.90;99.90;;;;;;5006327;28;20038;-81
2024/02/06 08:15:09;;;;;;;0.10;0.10;;;4.10;99.90;;;;;;5018507;28;20022;-80
2024/02/06 08:17:42;;;;;;;0.15;0.15;;;4.20;99.90;;;;;;5007522;28;20603;-81
2024/02/06 08:20:09;;;;;;;0.10;0.10;;;4.20;99.90;;;;;;5009066;28;20102;-80
2024/02/06 08:22:36;;;;;;;0.10;0.10;;;4.30;99.90;;;;;;5016973;28;20018;-80
2024/02/06 08:25:01;;;;;;;0.10;0.10;;;4.40;99.90;;;;;;5007666;28;20048;-80
2024/02/06 08:27:27;;;;;;;0.32;0.32;;;4.40;99.90;;;;;;5010031;28;20093;-81
2024/02/06 08:29:53;;;;;;;0.10;0.10;;;4.40;99.90;;;;;;5015214;28;20104;-81
2024/02/06 08:32:18;;;;;;;0.10;0.10;;;4.50;99.90;;;;;;5008180;28;20036;-81
2024/02/06 08:34:44;;;;;;;0.10;0.10;;;4.50;99.90;;;;;;5013055;28;20021;-81
2024/02/06 08:37:10;;;;;;;0.10;0.10;;;4.40;99.90;;;;;;5008089;28;20028;-81
2024/02/06 08:39:35;;;;;;;0.10;0.10;;;4.40;99.90;;;;;;5011479;28;20508;-81
2024/02/06 08:42:01;;;;;;;0.10;0.10;;;4.50;99.90;;;;;;5008783;28;20413;-80
2024/02/06 08:44:27;;;;;;;0.10;0.10;;;4.50;99.90;;;;;;5010052;28;20880;-80
2024/02/06 08:46:52;;;;;;;0.10;0.10;;;4.60;99.90;;;;;;5009623;28;20037;-80
2024/02/06 08:49:18;;;;;;;0.13;0.13;;;4.50;99.90;;;;;;5014325;28;20136;-81
2024/02/06 08:51:45;;;;;;;0.10;0.10;;;4.60;99.90;;;;;;5016053;28;20065;-80
2024/02/06 08:54:11;;;;;;;0.10;0.10;;;4.80;99.90;;;;;;5013703;28;20046;-80
2024/02/06 08:56:36;;;;;;;0.10;0.10;;;4.80;99.90;;;;;;5016762;28;20168;-80
2024/02/06 08:59:03;;;;;;;2.78;2.55;;;4.70;99.90;;;;;;5020788;28;20022;-80
2024/02/06 09:01:29;;;;;;;0.10;0.10;;;4.80;99.90;;;;;;5008045;28;20030;-79
2024/02/06 09:03:55;;;;;;;0.10;0.10;;;4.90;99.90;;;;;;5015456;28;20029;-80
2024/02/06 09:06:21;;;;;;;0.60;0.60;;;4.90;99.90;;;;;;5008112;28;20558;-80
2024/02/06 09:08:47;;;;;;;0.20;0.20;;;5.00;99.90;;;;;;5013398;28;20022;-80
2024/02/06 09:11:13;;;;;;;0.20;0.20;;;4.90;99.90;;;;;;5007288;28;20038;-80
2024/02/06 09:13:38;;;;;;;0.10;0.10;;;4.90;99.90;;;;;;5006443;28;20030;-80
2024/02/06 09:16:05;;;;;;;0.10;0.10;;;5.00;99.90;;;;;;5006856;28;20061;-80
2024/02/06 09:18:30;;;;;;;0.13;0.13;;;5.00;99.90;;;;;;5011169;28;20060;-80
2024/02/06 09:20:56;;;;;;;0.10;0.10;;;5.10;99.90;;;;;;5009902;28;20708;-80
2024/02/06 09:23:22;;;;;;;0.10;0.10;;;4.90;99.90;;;;;;5015960;28;20029;-80
2024/02/06 09:25:47;;;;;;;0.10;0.10;;;5.00;99.90;;;;;;5008302;28;20030;-80
2024/02/06 09:28:14;;;;;;;0.10;0.10;;;4.90;99.90;;;;;;5008645;28;20034;-80
2024/02/06 09:30:40;;;;;;;0.10;0.10;;;4.80;99.90;;;;;;5011408;28;20037;-80
2024/02/06 09:33:08;;;;;;;0.10;0.10;;;4.80;99.90;;;;;;5009428;28;20056;-80
2024/02/06 09:35:33;;;;;;;0.20;0.20;;;4.90;99.90;;;;;;5009970;28;20026;-80
2024/02/06 09:37:59;;;;;;;0.10;0.10;;;4.80;99.90;;;;;;5010813;28;20025;-81
2024/02/06 09:40:25;;;;;;;0.03;0.03;;;4.70;99.90;;;;;;5010199;28;20782;-80
2024/02/06 09:42:51;;;;;;;0.10;0.10;;;4.70;99.90;;;;;;5012315;28;20472;-81
2024/02/06 09:45:18;;;;;;;0.35;0.35;;;4.90;99.90;;;;;;5007313;28;20034;-80
2024/02/06 09:47:44;;;;;;;0.17;0.17;;;4.90;99.90;;;;;;5007172;28;20038;-81
2024/02/06 09:50:10;;;;;;;0.00;0.00;;;5.00;99.90;;;;;;5015394;28;20549;-80
2024/02/06 09:52:36;;;;;;;0.10;0.10;;;5.00;99.90;;;;;;5019862;28;20108;-80
2024/02/06 09:55:08;;;;;;;0.10;0.10;;;5.10;99.90;;;;;;5007038;28;20116;-80
2024/02/06 09:57:37;;;;;;;0.10;0.10;;;5.00;99.90;;;;;;5018364;28;20044;-80
2024/02/06 10:00:08;;;;;;;0.10;0.10;;;5.00;99.90;;;;;;5005299;28;20046;-80
2024/02/06 10:02:41;;;;;;;0.10;0.10;;;5.10;99.90;;;;;;5011785;28;20034;-80
2024/02/06 10:05:15;;;;;;;0.98;0.98;;;4.90;99.90;;;;;;5011271;28;20508;-80
2024/02/06 10:07:42;;;;;;;0.10;0.10;;;4.90;99.90;;;;;;5005925;28;20034;-80
2024/02/06 10:10:09;;;;;;;0.20;0.20;;;5.10;99.90;;;;;;5011867;28;20072;-80
2024/02/06 10:12:35;;;;;;;0.20;0.20;;;5.10;99.90;;;;;;5006911;28;20046;-80
2024/02/06 10:15:01;;;;;;;0.55;0.55;;;5.00;99.90;;;;;;5010921;28;20058;-80
2024/02/06 10:17:26;;;;;;;0.10;0.10;;;5.00;99.90;;;;;;5006058;28;20123;-80
2024/02/06 10:19:53;;;;;;;0.32;0.32;;;4.90;99.90;;;;;;5007384;28;20034;-81
2024/02/06 10:22:19;;;;;;;0.00;0.00;;;4.80;99.90;;;;;;5011643;28;20511;-80
2024/02/06 10:24:44;;;;;;;0.10;0.10;;;4.80;99.90;;;;;;5009784;28;20058;-81
2024/02/06 10:27:10;;;;;;;0.10;0.10;;;4.80;99.90;;;;;;5008262;28;20076;-80
2024/02/06 10:29:36;;;;;;;0.98;0.98;;;4.90;99.90;;;;;;5010562;28;20096;-80
2024/02/06 10:32:15;;;;;;;0.10;0.10;;;5.00;99.90;;;;;;5008631;28;20064;-80
2024/02/06 10:34:41;;;;;;;0.20;0.20;;;5.00;99.90;;;;;;5008897;28;20022;-81
2024/02/06 10:37:08;;;;;;;0.10;0.10;;;5.20;99.90;;;;;;5008878;28;20029;-81
2024/02/06 10:39:34;;;;;;;0.40;0.40;;;5.00;99.90;;;;;;5013326;28;20052;-80
2024/02/06 10:42:00;;;;;;;0.10;0.10;;;5.10;99.90;;;;;;5008666;28;20474;-80
2024/02/06 10:44:28;;;;;;;0.50;0.50;;;5.10;99.90;;;;;;5009923;28;20533;-80
2024/02/06 10:47:06;;;;;;;0.10;0.10;;;5.10;99.90;;;;;;5006270;28;20044;-80
2024/02/06 10:49:32;;;;;;;0.10;0.10;;;5.10;99.90;;;;;;5010297;28;20140;-80
2024/02/06 10:52:02;;;;;;;1.25;1.08;;;5.50;99.90;;;;;;5019883;28;20129;-80
2024/02/06 10:54:28;;;;;;;0.25;0.25;;;6.10;99.90;;;;;;5012947;28;20026;-81
2024/02/06 10:57:07;;;;;;;0.10;0.10;;;6.20;99.90;;;;;;5011896;28;20076;-81
2024/02/06 10:59:43;;;;;;;0.10;0.10;;;6.10;99.90;;;;;;5009257;28;20422;-80
2024/02/06 11:02:24;;;;;;;0.10;0.10;;;5.90;99.90;;;;;;5009756;28;20029;-81
2024/02/06 11:05:22;;;;;;;0.08;0.08;;;5.90;99.90;;;;;;5008723;28;20029;-80
2024/02/06 11:07:56;;;;;;;0.00;0.00;;;6.00;99.90;;;;;;5019520;28;20026;-81
2024/02/06 11:10:31;;;;;;;0.20;0.20;;;6.60;99.90;;;;;;5007717;28;20038;-81
2024/02/06 11:13:10;;;;;;;0.30;0.30;;;6.70;99.90;;;;;;5009555;28;20892;-81
2024/02/06 11:15:40;;;;;;;0.10;0.10;;;6.60;99.90;;;;;;5010607;28;20026;-81
2024/02/06 11:18:12;;;;;;;0.15;0.15;;;6.60;99.90;;;;;;5011102;28;20026;-81
2024/02/06 11:20:40;;;;;;;0.88;0.70;;;6.70;99.90;;;;;;5012576;28;20025;-81
2024/02/06 11:23:07;;;;;;;0.25;0.25;;;7.00;99.90;;;;;;5010517;28;20521;-81
2024/02/06 11:25:35;;;;;;;0.95;0.95;;;7.00;99.90;;;;;;5023794;28;20096;-81
2024/02/06 11:28:03;;;;;;;0.10;0.10;;;7.30;99.90;;;;;;5010608;28;20030;-81
2024/02/06 11:30:31;;;;;;;0.22;0.22;;;7.40;99.90;;;;;;5015089;28;20510;-81
2024/02/06 11:33:08;;;;;;;0.00;0.00;;;7.50;99.90;;;;;;5015645;28;20022;-81
2024/02/06 11:35:37;;;;;;;0.30;0.30;;;7.40;99.90;;;;;;5008780;28;20088;-81
2024/02/06 11:38:03;;;;;;;0.10;0.10;;;7.40;99.90;;;;;;5012073;28;20405;-81
2024/02/06 11:40:30;;;;;;;1.27;1.17;;;7.30;99.90;;;;;;5011224;28;20049;-81
2024/02/06 11:43:04;;;;;;;0.00;0.00;;;7.40;99.90;;;;;;5011230;28;20049;-81
2024/02/06 11:45:31;;;;;;;0.10;0.10;;;7.20;99.90;;;;;;5008135;28;20037;-81
2024/02/06 11:48:02;;;;;;;0.10;0.10;;;7.20;99.90;;;;;;5007782;28;20148;-81
2024/02/06 11:50:42;;;;;;;0.63;0.63;;;7.20;99.90;;;;;;5011528;28;20029;-81
2024/02/06 11:53:14;;;;;;;0.10;0.10;;;7.20;99.90;;;;;;5014680;28;20080;-81
2024/02/06 11:55:42;;;;;;;0.10;0.10;;;7.40;99.90;;;;;;5008446;28;20564;-81
2024/02/06 11:58:11;;;;;;;0.10;0.10;;;7.40;99.90;;;;;;5013417;28;20026;-81
2024/02/06 12:00:37;;;;;;;0.10;0.10;;;7.40;99.90;;;;;;5002310;28;20030;-81
2024/02/06 12:03:04;;;;;;;2.30;1.30;;;7.10;99.90;;;;;;5007078;28;20026;-81
2024/02/06 12:05:40;;;;;;;0.10;0.10;;;7.00;99.90;;;;;;5011310;28;20026;-81
2024/02/06 12:08:07;;;;;;;0.13;0.13;;;7.10;99.90;;;;;;5010842;28;20097;-80
2024/02/06 12:10:34;;;;;;;0.10;0.10;;;7.40;99.90;;;;;;5008200;28;20823;-81
2024/02/06 12:13:06;;;;;;;1.02;1.00;;;7.30;99.90;;;;;;5011942;28;20037;-81
2024/02/06 12:15:32;;;;;;;0.10;0.10;;;7.40;99.90;;;;;;5010335;28;20128;-80
2024/02/06 12:17:59;;;;;;;0.10;0.10;;;7.20;99.90;;;;;;5010145;28;20547;-81
2024/02/06 12:20:25;;;;;;;0.20;0.20;;;6.90;99.90;;;;;;5009830;28;20051;-81
2024/02/06 12:22:59;;;;;;;0.10;0.10;;;7.10;99.90;;;;;;5010203;28;20033;-82
2024/02/06 12:25:26;;;;;;;0.10;0.10;;;7.30;99.90;;;;;;5009700;28;20033;-81
2024/02/06 12:28:00;;;;;;;0.00;0.00;;;7.10;99.90;;;;;;5006543;28;20030;-81
2024/02/06 12:30:29;;;;;;;0.10;0.10;;;6.90;99.90;;;;;;5007361;28;20767;-81
2024/02/06 12:33:02;;;;;;;0.45;0.45;;;7.00;99.90;;;;;;5011522;28;20032;-81
2024/02/06 12:35:29;;;;;;;0.20;0.20;;;7.00;99.90;;;;;;5005991;28;20053;-81
2024/02/06 12:37:58;;;;;;;0.55;0.55;;;6.90;99.90;;;;;;5013399;28;20032;-81
2024/02/06 12:40:32;;;;;;;0.90;0.90;;;7.00;99.90;;;;;;5008508;28;20041;-81
2024/02/06 12:43:01;;;;;;;0.20;0.20;;;7.00;99.90;;;;;;5008676;28;20037;-81
2024/02/06 12:45:27;;;;;;;0.05;0.05;;;7.00;99.90;;;;;;5007958;28;20588;-81
2024/02/06 12:47:55;;;;;;;0.17;0.17;;;6.90;99.90;;;;;;5007868;28;20029;-81
2024/02/06 12:50:20;;;;;;;;;;;7.00;99.90;;;;;;5019172;28;20034;-81
2024/02/06 12:52:53;;;;;;;0.00;0.00;;;7.00;99.90;;;;;;5012143;28;20001;-81
2024/02/06 12:55:20;;;;;;;0.10;0.10;;;7.20;99.90;;;;;;5017305;28;20021;-81